createdAt,value
2022-12-03T00:00:11.847Z,68.47
2022-12-03T00:02:41.043Z,70.40
2022-12-03T00:05:10.065Z,62.70
2022-12-03T00:07:38.158Z,63.80
2022-12-03T00:10:09.124Z,66.50
2022-12-03T00:12:37.114Z,67.10
2022-12-03T00:15:05.948Z,64.40
2022-12-03T00:17:35.152Z,65.63
2022-12-03T00:20:03.184Z,67.13
2022-12-03T00:22:31.143Z,63.20
2022-12-03T00:24:59.500Z,61.13
2022-12-03T00:27:29.191Z,65.80
2022-12-03T00:29:57.195Z,63.40
2022-12-03T00:32:25.208Z,62.47
2022-12-03T00:34:55.940Z,61.83
2022-12-03T00:37:24.132Z,63.73
2022-12-03T00:39:52.359Z,62.20
2022-12-03T00:42:20.343Z,60.90
2022-12-03T00:44:49.837Z,69.23
2022-12-03T00:47:17.934Z,69.40
2022-12-03T00:49:46.020Z,58.50
2022-12-03T00:52:14.015Z,61.57
2022-12-03T00:54:42.015Z,66.07
2022-12-03T00:57:10.025Z,62.17
2022-12-03T00:59:38.031Z,58.37
2022-12-03T01:02:07.537Z,60.97
2022-12-03T01:04:35.754Z,60.47
2022-12-03T01:07:04.062Z,63.07
2022-12-03T01:09:32.375Z,60.23
2022-12-03T01:12:00.650Z,65.63
2022-12-03T01:14:28.704Z,61.70
2022-12-03T01:16:56.799Z,61.53
2022-12-03T01:19:26.152Z,56.03
2022-12-03T01:21:55.480Z,57.87
2022-12-03T01:24:23.528Z,60.17
2022-12-03T01:26:51.518Z,61.20
2022-12-03T01:29:19.561Z,64.03
2022-12-03T01:32:06.282Z,60.57
2022-12-03T01:34:35.771Z,65.87
2022-12-03T01:37:04.028Z,61.47
2022-12-03T01:39:32.022Z,62.40
2022-12-03T01:42:02.576Z,65.67
2022-12-03T01:44:33.228Z,65.30
2022-12-03T01:47:03.154Z,63.50
2022-12-03T01:49:34.472Z,67.93
2022-12-03T01:52:03.904Z,68.93
2022-12-03T01:54:38.134Z,69.87
2022-12-03T01:57:06.833Z,70.57
2022-12-03T01:59:38.777Z,76.80
2022-12-03T02:02:13.980Z,74.77
2022-12-03T02:04:42.413Z,74.77
2022-12-03T02:07:24.278Z,70.67
2022-12-03T02:09:53.157Z,72.97
2022-12-03T02:12:24.859Z,70.83
2022-12-03T02:14:54.072Z,73.10
2022-12-03T02:17:22.482Z,65.83
2022-12-03T02:19:50.776Z,74.57
2022-12-03T02:22:35.278Z,72.83
2022-12-03T02:25:24.158Z,70.70
2022-12-03T02:27:54.113Z,73.70
2022-12-03T02:30:24.362Z,84.10
2022-12-03T02:32:53.243Z,74.90
2022-12-03T02:35:23.247Z,76.77
2022-12-03T02:37:58.089Z,74.80
2022-12-03T02:40:30.143Z,80.73
2022-12-03T02:43:01.016Z,80.97
2022-12-03T02:45:33.275Z,71.50
2022-12-03T02:48:07.518Z,79.13
2022-12-03T02:50:38.804Z,79.87
2022-12-03T02:53:09.368Z,76.13
2022-12-03T02:55:39.716Z,79.23
2022-12-03T02:58:08.238Z,86.80
2022-12-03T03:00:37.270Z,101.30
2022-12-03T03:03:07.072Z,91.03
2022-12-03T03:05:37.298Z,88.17
2022-12-03T03:08:06.451Z,82.87
2022-12-03T03:10:36.356Z,103.23
2022-12-03T03:13:08.708Z,92.97
2022-12-03T03:15:37.826Z,99.00
2022-12-03T03:18:06.191Z,94.87
2022-12-03T03:20:34.447Z,94.90
2022-12-03T03:23:14.044Z,103.70
2022-12-03T03:25:44.711Z,95.57
2022-12-03T03:28:15.170Z,85.17
2022-12-03T03:30:45.029Z,111.40
2022-12-03T03:33:14.329Z,105.27
2022-12-03T03:35:43.381Z,92.70
2022-12-03T03:38:11.882Z,92.13
2022-12-03T03:40:40.221Z,118.17
2022-12-03T03:43:08.783Z,109.03
2022-12-03T03:45:40.474Z,106.20
2022-12-03T03:48:08.617Z,103.17
2022-12-03T03:50:37.079Z,101.00
2022-12-03T03:53:06.267Z,117.00
2022-12-03T03:55:35.540Z,115.23
2022-12-03T03:58:03.719Z,113.53
2022-12-03T04:00:32.728Z,104.10
2022-12-03T04:03:02.304Z,94.80
2022-12-03T04:05:30.444Z,99.37
2022-12-03T04:07:58.803Z,101.87
2022-12-03T04:10:44.278Z,90.17
2022-12-03T04:13:12.356Z,94.67
2022-12-03T04:15:40.440Z,99.17
2022-12-03T04:18:27.363Z,96.33
2022-12-03T04:21:15.903Z,103.43
2022-12-03T04:23:43.023Z,95.93
2022-12-03T04:26:28.667Z,95.37
2022-12-03T04:28:56.800Z,98.10
2022-12-03T04:31:41.980Z,91.53
2022-12-03T04:34:29.252Z,100.73
2022-12-03T04:36:57.523Z,91.40
2022-12-03T04:39:25.529Z,94.67
2022-12-03T04:41:53.482Z,92.43
2022-12-03T04:44:39.392Z,94.73
2022-12-03T04:47:10.832Z,84.07
2022-12-03T04:49:42.155Z,90.93
2022-12-03T04:52:11.855Z,83.40
2022-12-03T04:54:42.908Z,86.00
2022-12-03T04:57:11.561Z,89.83
2022-12-03T04:59:40.149Z,84.70
2022-12-03T05:02:08.600Z,84.87
2022-12-03T05:04:36.668Z,91.03
2022-12-03T05:07:06.036Z,93.63
2022-12-03T05:09:35.935Z,99.00
2022-12-03T05:12:06.647Z,85.60
2022-12-03T05:14:34.674Z,89.17
2022-12-03T05:17:03.327Z,99.77
2022-12-03T05:19:45.273Z,97.93
2022-12-03T05:22:14.720Z,88.50
2022-12-03T05:24:42.700Z,87.90
2022-12-03T05:27:10.696Z,92.03
2022-12-03T05:29:38.727Z,86.97
2022-12-03T05:32:07.184Z,77.23
2022-12-03T05:34:35.180Z,87.63
2022-12-03T05:37:04.425Z,84.13
2022-12-03T05:39:33.813Z,91.23
2022-12-03T05:42:19.592Z,82.87
2022-12-03T05:44:47.567Z,92.30
2022-12-03T05:47:15.633Z,84.50
2022-12-03T05:49:43.694Z,90.30
2022-12-03T05:52:11.920Z,86.67
2022-12-03T05:54:41.276Z,88.07
2022-12-03T05:57:09.300Z,82.73
2022-12-03T05:59:37.300Z,79.37
2022-12-03T06:02:05.518Z,81.47
2022-12-03T06:04:33.569Z,82.47
2022-12-03T06:07:01.580Z,86.47
2022-12-03T06:09:29.556Z,82.77
2022-12-03T06:12:00.823Z,92.57
2022-12-03T06:14:30.143Z,83.07
2022-12-03T06:16:58.189Z,83.03
2022-12-03T06:19:26.187Z,85.80
2022-12-03T06:21:54.202Z,83.00
2022-12-03T06:24:22.256Z,76.70
2022-12-03T06:26:50.293Z,87.90
2022-12-03T06:29:19.950Z,85.23
2022-12-03T06:31:47.920Z,80.10
2022-12-03T06:34:16.047Z,90.87
2022-12-03T06:36:44.061Z,81.67
2022-12-03T06:39:12.602Z,93.30
2022-12-03T06:41:40.574Z,91.73
2022-12-03T06:44:08.584Z,89.70
2022-12-03T06:46:37.996Z,86.40
2022-12-03T06:49:06.063Z,88.60
2022-12-03T06:51:34.064Z,82.83
2022-12-03T06:54:02.436Z,75.87
2022-12-03T06:56:35.797Z,87.93
2022-12-03T06:59:06.016Z,80.77
2022-12-03T07:01:34.069Z,82.47
2022-12-03T07:04:03.468Z,90.73
2022-12-03T07:06:31.465Z,80.70
2022-12-03T07:08:59.504Z,76.27
2022-12-03T07:11:33.241Z,88.23
2022-12-03T07:14:05.485Z,84.00
2022-12-03T07:16:37.420Z,81.90
2022-12-03T07:19:07.747Z,85.83
2022-12-03T07:21:35.938Z,82.33
2022-12-03T07:24:04.289Z,85.33
2022-12-03T07:26:32.435Z,86.97
2022-12-03T07:29:05.823Z,84.93
2022-12-03T07:31:35.081Z,87.70
2022-12-03T07:34:03.193Z,89.53
2022-12-03T07:36:32.561Z,88.53
2022-12-03T07:39:00.587Z,87.07
2022-12-03T07:41:31.688Z,88.80
2022-12-03T07:43:59.838Z,81.87
2022-12-03T07:46:27.889Z,91.17
2022-12-03T07:48:55.943Z,96.17
2022-12-03T07:51:28.810Z,80.10
2022-12-03T07:54:01.355Z,86.37
2022-12-03T07:56:30.784Z,83.13
2022-12-03T07:58:58.774Z,87.07
2022-12-03T08:01:26.965Z,85.30
2022-12-03T08:03:55.019Z,82.87
2022-12-03T08:06:23.003Z,95.13
2022-12-03T08:08:51.012Z,90.23
2022-12-03T08:11:23.224Z,94.90
2022-12-03T08:13:53.451Z,82.90
2022-12-03T08:16:23.565Z,87.70
2022-12-03T08:18:52.544Z,89.63
2022-12-03T08:21:22.268Z,92.70
2022-12-03T08:23:50.463Z,87.47
2022-12-03T08:26:23.923Z,88.97
2022-12-03T08:28:52.343Z,79.70
2022-12-03T08:31:27.933Z,83.97
2022-12-03T08:34:18.694Z,91.80
2022-12-03T08:36:47.405Z,89.97
2022-12-03T08:39:30.692Z,112.20
2022-12-03T08:42:27.179Z,88.50
2022-12-03T08:44:56.275Z,100.40
2022-12-03T08:47:25.626Z,84.77
2022-12-03T08:49:58.010Z,94.60
2022-12-03T08:52:32.543Z,79.13
2022-12-03T08:55:03.924Z,78.83
2022-12-03T08:57:37.907Z,82.63
2022-12-03T09:00:19.576Z,77.40
2022-12-03T09:02:50.399Z,85.97
2022-12-03T09:05:21.584Z,88.23
2022-12-03T09:07:49.884Z,90.27
2022-12-03T09:10:20.984Z,90.43
2022-12-03T09:12:50.508Z,86.40
2022-12-03T09:15:18.731Z,87.00
2022-12-03T09:17:46.832Z,85.77
2022-12-03T09:20:15.213Z,88.70
2022-12-03T09:22:43.259Z,90.37
2022-12-03T09:25:11.632Z,78.77
2022-12-03T09:27:39.660Z,80.30
2022-12-03T09:30:10.074Z,74.23
2022-12-03T09:32:38.120Z,86.43
2022-12-03T09:35:06.887Z,93.73
2022-12-03T09:37:35.003Z,83.37
2022-12-03T09:40:02.989Z,80.00
2022-12-03T09:42:31.096Z,85.13
2022-12-03T09:44:59.362Z,80.63
2022-12-03T09:47:29.355Z,95.20
2022-12-03T09:49:58.481Z,86.00
2022-12-03T09:52:33.881Z,79.90
2022-12-03T09:55:06.521Z,84.40
2022-12-03T09:57:34.548Z,81.00
2022-12-03T10:00:02.897Z,83.13
2022-12-03T10:02:34.228Z,88.87
2022-12-03T10:05:02.944Z,85.90
2022-12-03T10:07:31.353Z,82.97
2022-12-03T10:09:59.368Z,79.93
2022-12-03T10:12:27.389Z,84.90
2022-12-03T10:14:56.520Z,80.17
2022-12-03T10:17:24.669Z,77.13
2022-12-03T10:19:54.391Z,80.07
2022-12-03T10:22:22.547Z,78.80
2022-12-03T10:25:08.837Z,78.83
2022-12-03T10:27:36.873Z,71.10
2022-12-03T10:30:14.705Z,80.97
2022-12-03T10:32:45.112Z,75.70
2022-12-03T10:35:17.173Z,81.27
2022-12-03T10:37:59.143Z,91.97
2022-12-03T10:40:28.431Z,91.93
2022-12-03T10:43:16.885Z,98.33
2022-12-03T10:45:46.044Z,91.37
2022-12-03T10:48:16.638Z,88.40
2022-12-03T10:50:50.945Z,84.93
2022-12-03T10:53:20.210Z,83.13
2022-12-03T10:55:49.215Z,87.27
2022-12-03T10:58:22.669Z,87.23
2022-12-03T11:00:51.728Z,93.27
2022-12-03T11:03:21.798Z,89.63
2022-12-03T11:05:51.961Z,84.57
2022-12-03T11:08:21.748Z,76.27
2022-12-03T11:10:58.984Z,85.87
2022-12-03T11:13:46.695Z,92.37
2022-12-03T11:16:35.697Z,103.37
2022-12-03T11:19:04.467Z,83.00
2022-12-03T11:21:33.828Z,105.13
2022-12-03T11:24:18.390Z,94.23
2022-12-03T11:27:26.064Z,91.50
2022-12-03T11:30:02.524Z,86.83
2022-12-03T11:33:09.971Z,88.07
2022-12-03T11:36:03.047Z,81.60
2022-12-03T11:38:53.565Z,99.27
2022-12-03T11:41:24.800Z,87.67
2022-12-03T11:44:31.895Z,88.33
2022-12-03T11:47:02.264Z,84.90
2022-12-03T11:49:36.411Z,93.17
2022-12-03T11:52:20.570Z,88.43
2022-12-03T11:54:54.086Z,87.00
2022-12-03T11:57:31.481Z,94.10
2022-12-03T12:00:07.016Z,91.07
2022-12-03T12:02:35.076Z,96.47
2022-12-03T12:05:29.027Z,87.33
2022-12-03T12:07:59.182Z,95.23
2022-12-03T12:10:43.789Z,97.40
2022-12-03T12:13:29.012Z,91.67
2022-12-03T12:15:57.178Z,86.57
2022-12-03T12:18:42.368Z,89.77
2022-12-03T12:21:42.947Z,99.47
2022-12-03T12:24:38.279Z,98.73
2022-12-03T12:27:09.677Z,106.40
2022-12-03T12:29:39.197Z,88.80
2022-12-03T12:32:16.118Z,94.07
2022-12-03T12:34:46.179Z,90.17
2022-12-03T12:37:18.496Z,89.67
2022-12-03T12:39:46.685Z,91.30
2022-12-03T12:42:30.767Z,90.70
2022-12-03T12:45:10.055Z,93.70
2022-12-03T12:47:38.227Z,93.60
2022-12-03T12:50:11.692Z,96.30
2022-12-03T12:52:48.165Z,89.57
2022-12-03T12:55:17.354Z,97.53
2022-12-03T12:57:47.185Z,92.80
2022-12-03T13:00:20.850Z,101.50
2022-12-03T13:02:55.482Z,91.13
2022-12-03T13:05:24.620Z,94.47
2022-12-03T13:07:53.985Z,96.27
2022-12-03T13:10:39.984Z,82.57
2022-12-03T13:13:43.126Z,77.20
2022-12-03T13:16:19.400Z,92.43
2022-12-03T13:18:49.019Z,87.23
2022-12-03T13:21:23.571Z,86.47
2022-12-03T13:23:54.291Z,99.30
2022-12-03T13:26:37.646Z,94.63
2022-12-03T13:29:17.278Z,97.80
2022-12-03T13:31:53.596Z,82.83
2022-12-03T13:34:24.613Z,79.07
2022-12-03T13:36:58.008Z,84.80
2022-12-03T13:39:31.236Z,69.80
2022-12-03T13:42:21.593Z,88.10
2022-12-03T13:44:51.375Z,84.40
2022-12-03T13:47:22.351Z,76.70
2022-12-03T13:49:54.079Z,82.77
2022-12-03T13:52:26.178Z,98.10
2022-12-03T13:54:56.077Z,85.13
2022-12-03T13:57:24.515Z,85.30
2022-12-03T13:59:56.975Z,84.43
2022-12-03T14:02:25.209Z,94.30
2022-12-03T14:04:59.785Z,87.77
2022-12-03T14:07:30.104Z,90.10
2022-12-03T14:09:58.132Z,103.37
2022-12-03T14:12:33.633Z,93.53
2022-12-03T14:15:04.299Z,79.27
2022-12-03T14:17:33.388Z,91.77
2022-12-03T14:20:01.708Z,80.93
2022-12-03T14:22:30.440Z,107.80
2022-12-03T14:25:01.653Z,78.27
2022-12-03T14:27:30.085Z,85.20
2022-12-03T14:29:59.222Z,95.47
2022-12-03T14:32:28.725Z,108.00
2022-12-03T14:34:56.896Z,89.57
2022-12-03T14:37:25.178Z,193.97
2022-12-03T14:39:53.536Z,87.00
2022-12-03T14:42:22.035Z,110.10
2022-12-03T14:44:51.617Z,98.93
2022-12-03T14:47:23.401Z,80.77
2022-12-03T14:49:53.444Z,106.33
2022-12-03T14:52:21.644Z,81.30
2022-12-03T14:54:49.977Z,100.53
2022-12-03T14:57:18.348Z,126.13
2022-12-03T14:59:46.977Z,92.50
2022-12-03T15:02:17.353Z,107.03
2022-12-03T15:04:45.412Z,94.47
2022-12-03T15:07:14.755Z,108.50
2022-12-03T15:09:42.747Z,90.40
2022-12-03T15:12:28.786Z,79.23
2022-12-03T15:14:56.767Z,112.47
2022-12-03T15:17:31.326Z,181.90
2022-12-03T15:20:00.255Z,130.30
2022-12-03T15:22:29.641Z,84.87
2022-12-03T15:24:57.639Z,89.17
2022-12-03T15:27:26.320Z,107.20
2022-12-03T15:29:56.802Z,108.00
2022-12-03T15:32:24.971Z,89.80
2022-12-03T15:34:52.971Z,84.77
2022-12-03T15:37:21.038Z,98.90
2022-12-03T15:39:50.434Z,100.87
2022-12-03T15:42:18.396Z,92.70
2022-12-03T15:44:46.408Z,76.73
2022-12-03T15:47:14.407Z,97.07
2022-12-03T15:49:42.487Z,102.63
2022-12-03T15:52:10.474Z,89.23
2022-12-03T15:54:38.467Z,92.00
2022-12-03T15:57:07.812Z,102.60
2022-12-03T15:59:35.837Z,119.57
2022-12-03T16:02:03.977Z,115.43
2022-12-03T16:04:32.052Z,120.07
2022-12-03T16:07:00.034Z,100.80
2022-12-03T16:09:28.054Z,120.77
2022-12-03T16:11:56.176Z,120.53
2022-12-03T16:14:25.607Z,108.80
2022-12-03T16:16:53.807Z,112.07
2022-12-03T16:19:22.196Z,110.43
2022-12-03T16:21:50.172Z,110.57
2022-12-03T16:24:18.175Z,127.07
2022-12-03T16:26:46.196Z,141.43
2022-12-03T16:29:14.231Z,126.13
2022-12-03T16:31:43.687Z,119.90
2022-12-03T16:34:14.819Z,156.73
2022-12-03T16:36:42.875Z,157.37
2022-12-03T16:39:10.934Z,145.73
2022-12-03T16:41:38.957Z,115.17
2022-12-03T16:44:07.313Z,122.93
2022-12-03T16:46:35.396Z,135.53
2022-12-03T16:49:06.219Z,131.53
2022-12-03T16:51:34.223Z,124.43
2022-12-03T16:54:02.208Z,166.53
2022-12-03T16:56:30.277Z,142.97
2022-12-03T16:58:58.793Z,142.13
2022-12-03T17:01:26.980Z,140.57
2022-12-03T17:03:55.223Z,131.73
2022-12-03T17:06:24.640Z,147.23
2022-12-03T17:08:52.617Z,153.20
2022-12-03T17:11:20.814Z,138.13
2022-12-03T17:13:48.878Z,139.07
2022-12-03T17:16:16.935Z,154.23
2022-12-03T17:18:45.077Z,170.23
2022-12-03T17:21:13.158Z,141.50
2022-12-03T17:23:42.513Z,135.67
2022-12-03T17:26:10.504Z,163.37
2022-12-03T17:28:38.606Z,158.83
2022-12-03T17:31:06.858Z,146.60
2022-12-03T17:33:37.956Z,152.00
2022-12-03T17:36:07.098Z,143.57
2022-12-03T17:38:39.502Z,134.83
2022-12-03T17:41:09.045Z,130.20
2022-12-03T17:43:37.052Z,134.17
2022-12-03T17:46:06.587Z,156.67
2022-12-03T17:48:35.045Z,124.90
2022-12-03T17:51:03.163Z,130.40
2022-12-03T17:53:31.145Z,119.57
2022-12-03T17:55:59.164Z,116.07
2022-12-03T17:58:28.867Z,128.07
2022-12-03T18:01:02.088Z,135.27
2022-12-03T18:03:31.171Z,179.63
2022-12-03T18:05:59.199Z,139.83
2022-12-03T18:08:27.173Z,139.20
2022-12-03T18:10:55.693Z,151.20
2022-12-03T18:13:23.769Z,201.80
2022-12-03T18:15:53.218Z,164.57
2022-12-03T18:18:21.322Z,123.23
2022-12-03T18:20:49.360Z,131.00
2022-12-03T18:23:17.374Z,148.07
2022-12-03T18:25:45.500Z,127.97
2022-12-03T18:28:13.526Z,115.73
2022-12-03T18:30:41.524Z,119.97
2022-12-03T18:33:10.882Z,121.73
2022-12-03T18:35:38.938Z,127.57
2022-12-03T18:38:07.088Z,122.27
2022-12-03T18:40:35.119Z,117.13
2022-12-03T18:43:03.212Z,125.23
2022-12-03T18:45:31.194Z,107.40
2022-12-03T18:47:59.251Z,112.47
2022-12-03T18:50:28.710Z,106.63
2022-12-03T18:52:56.702Z,150.83
2022-12-03T18:55:25.080Z,131.83
2022-12-03T18:57:53.119Z,120.13
2022-12-03T19:00:21.631Z,152.27
2022-12-03T19:03:05.186Z,154.47
2022-12-03T19:05:36.172Z,149.77
2022-12-03T19:08:12.381Z,136.03
2022-12-03T19:10:40.616Z,129.10
2022-12-03T19:13:09.051Z,153.80
2022-12-03T19:15:38.440Z,124.33
2022-12-03T19:18:07.453Z,183.33
2022-12-03T19:20:36.861Z,121.07
2022-12-03T19:23:04.858Z,144.73
2022-12-03T19:25:32.873Z,145.00
2022-12-03T19:28:00.875Z,144.77
2022-12-03T19:30:28.946Z,137.20
2022-12-03T19:32:58.019Z,162.60
2022-12-03T19:35:26.039Z,151.40
2022-12-03T19:37:58.595Z,241.70
2022-12-03T19:40:26.612Z,129.07
2022-12-03T19:42:55.157Z,131.43
2022-12-03T19:45:23.503Z,216.53
2022-12-03T19:47:51.520Z,170.60
2022-12-03T19:50:23.355Z,178.33
2022-12-03T19:52:51.790Z,141.47
2022-12-03T19:55:21.254Z,144.50
2022-12-03T19:57:49.618Z,193.87
2022-12-03T20:00:18.024Z,150.93
2022-12-03T20:02:46.188Z,189.70
2022-12-03T20:05:14.237Z,136.57
2022-12-03T20:07:42.252Z,169.73
2022-12-03T20:10:11.020Z,166.90
2022-12-03T20:12:40.377Z,200.57
2022-12-03T20:15:08.856Z,180.40
2022-12-03T20:17:36.927Z,188.13
2022-12-03T20:20:06.355Z,172.57
2022-12-03T20:22:36.302Z,130.43
2022-12-03T20:25:05.057Z,138.23
2022-12-03T20:27:33.691Z,162.93
2022-12-03T20:30:03.758Z,127.37
2022-12-03T20:32:31.785Z,172.70
2022-12-03T20:34:59.987Z,155.87
2022-12-03T20:37:28.076Z,199.23
2022-12-03T20:39:56.463Z,210.60
2022-12-03T20:42:24.750Z,140.97
2022-12-03T20:44:53.451Z,225.10
2022-12-03T20:47:22.834Z,241.63
2022-12-03T20:49:50.877Z,265.20
2022-12-03T20:52:21.957Z,199.80
2022-12-03T20:54:49.968Z,193.40
2022-12-03T20:57:17.960Z,166.87
2022-12-03T20:59:45.984Z,267.93
2022-12-03T21:02:14.238Z,251.10
2022-12-03T21:04:43.831Z,203.77
2022-12-03T21:07:11.956Z,192.47
2022-12-03T21:09:40.032Z,199.70
2022-12-03T21:12:14.418Z,168.07
2022-12-03T21:14:46.752Z,174.70
2022-12-03T21:17:15.453Z,181.67
2022-12-03T21:19:47.266Z,132.70
2022-12-03T21:22:15.292Z,132.17
2022-12-03T21:24:43.666Z,212.40
2022-12-03T21:27:21.415Z,216.27
2022-12-03T21:29:53.452Z,188.23
2022-12-03T21:32:21.752Z,145.10
2022-12-03T21:34:51.276Z,179.70
2022-12-03T21:37:19.397Z,176.67
2022-12-03T21:39:47.436Z,183.87
2022-12-03T21:42:34.453Z,223.60
2022-12-03T21:45:04.208Z,168.00
2022-12-03T21:47:37.359Z,217.63
2022-12-03T21:50:11.077Z,176.97
2022-12-03T21:52:39.435Z,184.07
2022-12-03T21:55:08.130Z,189.97
2022-12-03T21:57:36.924Z,176.57
2022-12-03T22:00:07.663Z,189.37
2022-12-03T22:02:36.253Z,182.43
2022-12-03T22:05:04.440Z,175.00
2022-12-03T22:07:37.853Z,158.50
2022-12-03T22:10:07.215Z,157.90
2022-12-03T22:12:35.261Z,149.80
2022-12-03T22:15:03.267Z,129.30
2022-12-03T22:17:34.102Z,161.90
2022-12-03T22:20:02.081Z,124.70
2022-12-03T22:22:30.045Z,109.93
2022-12-03T22:24:59.463Z,106.90
2022-12-03T22:27:27.694Z,108.23
2022-12-03T22:29:56.030Z,112.13
2022-12-03T22:32:25.694Z,128.27
2022-12-03T22:34:53.692Z,112.50
2022-12-03T22:37:21.746Z,106.37
2022-12-03T22:39:49.749Z,98.93
2022-12-03T22:42:19.155Z,96.30
2022-12-03T22:44:47.124Z,96.93
2022-12-03T22:47:15.115Z,90.47
2022-12-03T22:49:43.081Z,90.67
2022-12-03T22:52:11.053Z,111.33
2022-12-03T22:54:39.292Z,113.83
2022-12-03T22:57:07.604Z,105.53
2022-12-03T22:59:36.995Z,92.33
2022-12-03T23:02:05.124Z,107.40
2022-12-03T23:04:33.200Z,113.37
2022-12-03T23:07:01.196Z,107.90
2022-12-03T23:09:29.189Z,97.90
2022-12-03T23:12:00.210Z,116.63
2022-12-03T23:14:28.203Z,117.47
2022-12-03T23:16:57.564Z,106.03
2022-12-03T23:19:25.533Z,117.00
2022-12-03T23:21:53.531Z,104.93
2022-12-03T23:24:21.510Z,127.53
2022-12-03T23:26:49.556Z,114.23
2022-12-03T23:29:17.558Z,100.60
2022-12-03T23:31:46.050Z,83.30
2022-12-03T23:34:18.044Z,79.00
2022-12-03T23:36:46.062Z,97.77
2022-12-03T23:39:14.084Z,105.27
2022-12-03T23:41:42.529Z,89.53
2022-12-03T23:44:10.576Z,89.23
2022-12-03T23:46:40.673Z,93.80
2022-12-03T23:49:08.860Z,79.83
2022-12-03T23:51:40.571Z,106.53
2022-12-03T23:54:08.584Z,118.73
2022-12-03T23:56:36.570Z,91.73
2022-12-03T23:59:04.817Z,105.83
